createdAt,value
2023-01-29T00:00:19.683Z,41.17
2023-01-29T00:02:23.072Z,44.43
2023-01-29T00:04:26.412Z,35.97
2023-01-29T00:06:29.196Z,35.07
2023-01-29T00:08:32.015Z,38.83
2023-01-29T00:10:37.068Z,39.93
2023-01-29T00:12:39.935Z,37.47
2023-01-29T00:14:42.746Z,37.23
2023-01-29T00:16:46.965Z,39.93
2023-01-29T00:18:49.792Z,41.10
2023-01-29T00:20:52.767Z,42.87
2023-01-29T00:22:55.591Z,37.63
2023-01-29T00:24:58.587Z,38.87
2023-01-29T00:27:01.576Z,43.40
2023-01-29T00:29:04.608Z,36.50
2023-01-29T00:31:11.088Z,44.30
2023-01-29T00:33:15.917Z,38.70
2023-01-29T00:35:18.780Z,41.33
2023-01-29T00:37:21.562Z,35.83
2023-01-29T00:39:31.467Z,36.30
2023-01-29T00:41:56.872Z,37.43
2023-01-29T00:44:13.940Z,34.07
2023-01-29T00:46:16.976Z,38.43
2023-01-29T00:48:21.542Z,41.83
2023-01-29T00:50:24.466Z,35.37
2023-01-29T00:52:27.788Z,37.10
2023-01-29T00:54:33.056Z,42.63
2023-01-29T00:56:37.262Z,40.83
2023-01-29T00:58:40.136Z,35.73
2023-01-29T01:00:44.076Z,32.07
2023-01-29T01:03:05.306Z,36.90
2023-01-29T01:05:13.931Z,40.00
2023-01-29T01:07:16.757Z,37.47
2023-01-29T01:09:37.342Z,31.40
2023-01-29T01:11:40.605Z,38.10
2023-01-29T01:13:43.692Z,35.17
2023-01-29T01:15:46.579Z,39.03
2023-01-29T01:17:49.875Z,37.83
2023-01-29T01:19:52.751Z,38.10
2023-01-29T01:21:56.987Z,38.40
2023-01-29T01:23:59.898Z,39.57
2023-01-29T01:26:03.687Z,37.23
2023-01-29T01:28:07.115Z,47.47
2023-01-29T01:30:12.297Z,34.97
2023-01-29T01:32:15.894Z,42.80
2023-01-29T01:34:19.413Z,40.37
2023-01-29T01:36:22.898Z,38.30
2023-01-29T01:38:27.116Z,39.83
2023-01-29T01:40:30.822Z,36.40
2023-01-29T01:42:33.669Z,42.83
2023-01-29T01:44:56.834Z,39.80
2023-01-29T01:47:02.021Z,37.47
2023-01-29T01:49:07.239Z,40.80
2023-01-29T01:51:10.342Z,38.83
2023-01-29T01:53:15.930Z,39.93
2023-01-29T01:55:24.539Z,42.13
2023-01-29T01:57:28.405Z,39.60
2023-01-29T01:59:32.613Z,38.60
2023-01-29T02:01:36.134Z,40.20
2023-01-29T02:04:00.831Z,38.50
2023-01-29T02:06:21.088Z,42.90
2023-01-29T02:08:46.961Z,37.57
2023-01-29T02:10:51.260Z,35.33
2023-01-29T02:12:54.186Z,33.30
2023-01-29T02:14:57.326Z,38.83
2023-01-29T02:17:01.837Z,36.73
2023-01-29T02:19:06.704Z,39.97
2023-01-29T02:21:25.361Z,37.37
2023-01-29T02:24:01.902Z,34.57
2023-01-29T02:26:20.449Z,36.63
2023-01-29T02:28:32.540Z,34.43
2023-01-29T02:30:38.610Z,36.47
2023-01-29T02:32:54.717Z,35.60
2023-01-29T02:35:25.780Z,38.33
2023-01-29T02:37:36.019Z,38.40
2023-01-29T02:39:43.483Z,39.10
2023-01-29T02:41:52.051Z,34.37
2023-01-29T02:44:00.756Z,33.97
2023-01-29T02:46:08.453Z,41.27
2023-01-29T02:48:16.736Z,36.43
2023-01-29T02:50:22.314Z,37.60
2023-01-29T02:52:29.035Z,38.83
2023-01-29T02:54:36.077Z,35.07
2023-01-29T02:56:42.655Z,39.90
2023-01-29T02:58:47.450Z,37.23
2023-01-29T03:00:53.407Z,37.80
2023-01-29T03:02:59.765Z,38.10
2023-01-29T03:05:07.644Z,38.57
2023-01-29T03:07:36.434Z,38.43
2023-01-29T03:09:42.387Z,43.23
2023-01-29T03:11:48.602Z,45.30
2023-01-29T03:13:59.868Z,44.70
2023-01-29T03:16:08.649Z,38.80
2023-01-29T03:18:18.049Z,43.40
2023-01-29T03:20:25.437Z,47.20
2023-01-29T03:22:28.631Z,46.00
2023-01-29T03:24:54.110Z,46.27
2023-01-29T03:27:20.823Z,42.13
2023-01-29T03:29:42.123Z,46.00
2023-01-29T03:32:05.034Z,43.53
2023-01-29T03:34:16.581Z,43.50
2023-01-29T03:36:23.016Z,43.73
2023-01-29T03:38:29.495Z,43.57
2023-01-29T03:40:45.531Z,42.67
2023-01-29T03:42:56.716Z,44.87
2023-01-29T03:45:05.174Z,47.83
2023-01-29T03:47:19.374Z,43.87
2023-01-29T03:49:27.904Z,44.30
2023-01-29T03:51:34.464Z,47.67
2023-01-29T03:53:44.956Z,44.30
2023-01-29T03:55:55.367Z,44.20
2023-01-29T03:58:01.369Z,44.77
2023-01-29T04:00:09.328Z,42.90
2023-01-29T04:02:52.963Z,55.77
2023-01-29T04:04:59.328Z,47.83
2023-01-29T04:07:05.566Z,42.43
2023-01-29T04:09:12.596Z,43.90
2023-01-29T04:11:20.005Z,43.73
2023-01-29T04:13:25.525Z,45.00
2023-01-29T04:15:31.459Z,47.57
2023-01-29T04:17:38.494Z,50.20
2023-01-29T04:19:51.073Z,48.77
2023-01-29T04:22:03.324Z,53.07
2023-01-29T04:24:07.707Z,42.43
2023-01-29T04:26:34.266Z,45.13
2023-01-29T04:28:50.316Z,48.13
2023-01-29T04:30:55.726Z,47.73
2023-01-29T04:33:04.935Z,44.27
2023-01-29T04:35:16.646Z,45.97
2023-01-29T04:37:24.802Z,49.27
2023-01-29T04:39:33.638Z,48.57
2023-01-29T04:41:41.729Z,43.70
2023-01-29T04:43:47.344Z,43.87
2023-01-29T04:46:03.676Z,44.77
2023-01-29T04:48:14.976Z,49.40
2023-01-29T04:50:23.650Z,43.57
2023-01-29T04:52:34.422Z,49.43
2023-01-29T04:54:45.987Z,49.90
2023-01-29T04:56:54.053Z,50.30
2023-01-29T04:58:59.796Z,50.97
2023-01-29T05:01:03.470Z,44.03
2023-01-29T05:03:09.656Z,44.87
2023-01-29T05:05:15.193Z,51.57
2023-01-29T05:07:20.083Z,48.13
2023-01-29T05:09:23.940Z,48.97
2023-01-29T05:11:27.609Z,51.40
2023-01-29T05:13:31.953Z,49.90
2023-01-29T05:15:38.157Z,48.83
2023-01-29T05:17:41.697Z,45.93
2023-01-29T05:19:44.731Z,48.93
2023-01-29T05:21:49.455Z,46.90
2023-01-29T05:26:38.157Z,49.27
2023-01-29T05:28:41.156Z,48.67
2023-01-29T05:30:45.431Z,44.23
2023-01-29T05:32:48.242Z,44.47
2023-01-29T05:34:51.178Z,44.20
2023-01-29T05:36:54.295Z,48.90
2023-01-29T05:38:57.097Z,47.47
2023-01-29T05:41:00.023Z,44.27
2023-01-29T05:43:04.419Z,48.03
2023-01-29T05:45:08.649Z,47.30
2023-01-29T05:47:11.476Z,48.10
2023-01-29T05:49:14.414Z,45.53
2023-01-29T05:51:17.264Z,43.10
2023-01-29T05:53:20.332Z,44.90
2023-01-29T05:55:23.136Z,47.97
2023-01-29T05:57:25.978Z,45.83
2023-01-29T05:59:31.260Z,45.03
2023-01-29T06:01:34.267Z,49.67
2023-01-29T06:03:37.102Z,49.00
2023-01-29T06:05:40.394Z,44.10
2023-01-29T06:07:45.343Z,44.30
2023-01-29T06:09:48.313Z,45.37
2023-01-29T06:11:51.124Z,49.67
2023-01-29T06:13:54.206Z,48.83
2023-01-29T06:15:58.498Z,45.27
2023-01-29T06:18:01.407Z,44.40
2023-01-29T06:20:05.395Z,49.13
2023-01-29T06:22:08.295Z,48.03
2023-01-29T06:24:11.202Z,48.80
2023-01-29T06:26:16.467Z,45.60
2023-01-29T06:28:19.283Z,43.93
2023-01-29T06:30:22.335Z,46.53
2023-01-29T06:32:26.659Z,45.73
2023-01-29T06:34:29.473Z,44.03
2023-01-29T06:36:32.327Z,47.40
2023-01-29T06:38:35.224Z,45.53
2023-01-29T06:40:39.849Z,47.30
2023-01-29T06:42:43.708Z,42.00
2023-01-29T06:44:49.461Z,46.40
2023-01-29T06:46:52.245Z,42.70
2023-01-29T06:48:58.958Z,50.50
2023-01-29T06:51:03.658Z,45.47
2023-01-29T06:53:06.456Z,41.60
2023-01-29T06:55:10.430Z,41.60
2023-01-29T06:57:13.274Z,43.43
2023-01-29T06:59:16.384Z,41.97
2023-01-29T07:01:34.687Z,45.50
2023-01-29T07:03:38.900Z,43.13
2023-01-29T07:05:43.150Z,42.43
2023-01-29T07:07:45.971Z,42.53
2023-01-29T07:09:48.787Z,42.40
2023-01-29T07:11:51.652Z,45.57
2023-01-29T07:13:54.589Z,42.53
2023-01-29T07:15:59.320Z,38.80
2023-01-29T07:18:04.551Z,42.90
2023-01-29T07:20:08.606Z,39.40
2023-01-29T07:22:12.867Z,42.03
2023-01-29T07:24:16.218Z,38.63
2023-01-29T07:26:19.055Z,45.30
2023-01-29T07:28:21.988Z,39.93
2023-01-29T07:30:24.823Z,43.47
2023-01-29T07:32:29.821Z,47.57
2023-01-29T07:34:32.691Z,43.83
2023-01-29T07:36:37.113Z,41.93
2023-01-29T07:38:41.810Z,43.20
2023-01-29T07:40:45.197Z,40.63
2023-01-29T07:42:48.039Z,40.23
2023-01-29T07:44:50.901Z,45.13
2023-01-29T07:46:53.703Z,42.67
2023-01-29T07:48:56.978Z,40.60
2023-01-29T07:51:00.253Z,41.40
2023-01-29T07:53:03.206Z,42.90
2023-01-29T07:55:08.210Z,43.53
2023-01-29T07:57:11.081Z,46.43
2023-01-29T07:59:13.973Z,45.90
2023-01-29T08:01:17.583Z,46.73
2023-01-29T08:03:21.132Z,44.10
2023-01-29T08:05:24.056Z,38.40
2023-01-29T08:07:26.920Z,44.60
2023-01-29T08:09:29.737Z,44.50
2023-01-29T08:11:33.957Z,43.73
2023-01-29T08:13:36.928Z,41.40
2023-01-29T08:15:39.760Z,42.37
2023-01-29T08:17:57.272Z,44.17
2023-01-29T08:20:00.812Z,41.20
2023-01-29T08:22:04.800Z,43.47
2023-01-29T08:24:08.189Z,41.00
2023-01-29T08:26:11.105Z,44.40
2023-01-29T08:28:15.312Z,41.80
2023-01-29T08:30:18.698Z,43.50
2023-01-29T08:32:21.737Z,39.97
2023-01-29T08:34:24.774Z,44.87
2023-01-29T08:36:27.827Z,43.67
2023-01-29T08:38:30.890Z,42.47
2023-01-29T08:40:34.903Z,46.80
2023-01-29T08:42:37.717Z,44.43
2023-01-29T08:44:42.210Z,42.40
2023-01-29T08:46:45.224Z,41.47
2023-01-29T08:48:48.093Z,58.03
2023-01-29T08:50:51.422Z,42.53
2023-01-29T08:52:58.363Z,44.10
2023-01-29T08:55:01.591Z,43.87
2023-01-29T08:57:04.607Z,43.20
2023-01-29T08:59:07.493Z,45.77
2023-01-29T09:01:12.819Z,42.33
2023-01-29T09:03:15.704Z,44.00
2023-01-29T09:05:19.032Z,46.17
2023-01-29T09:07:22.727Z,45.00
2023-01-29T09:09:25.632Z,41.47
2023-01-29T09:11:28.529Z,41.17
2023-01-29T09:13:31.462Z,42.53
2023-01-29T09:15:34.368Z,42.40
2023-01-29T09:17:38.756Z,44.50
2023-01-29T09:19:42.052Z,39.43
2023-01-29T09:21:45.298Z,41.03
2023-01-29T09:23:48.529Z,43.07
2023-01-29T09:25:51.417Z,41.97
2023-01-29T09:27:55.268Z,44.20
2023-01-29T09:29:58.178Z,38.27
2023-01-29T09:32:01.019Z,36.47
2023-01-29T09:34:05.205Z,36.43
2023-01-29T09:36:09.163Z,38.90
2023-01-29T09:38:12.440Z,42.57
2023-01-29T09:40:23.915Z,34.83
2023-01-29T09:42:29.806Z,37.07
2023-01-29T09:44:47.562Z,37.10
2023-01-29T09:46:52.695Z,36.73
2023-01-29T09:49:01.317Z,38.37
2023-01-29T09:51:08.571Z,44.40
2023-01-29T09:53:17.842Z,39.23
2023-01-29T09:55:24.366Z,35.30
2023-01-29T09:57:29.804Z,39.20
2023-01-29T09:59:33.229Z,38.00
2023-01-29T10:01:43.249Z,38.27
2023-01-29T10:04:17.484Z,36.80
2023-01-29T10:06:32.707Z,42.20
2023-01-29T10:08:51.486Z,40.23
2023-01-29T10:10:59.170Z,38.50
2023-01-29T10:13:06.764Z,35.90
2023-01-29T10:15:26.629Z,35.27
2023-01-29T10:17:40.578Z,37.27
2023-01-29T10:20:20.841Z,37.20
2023-01-29T10:22:43.838Z,37.10
2023-01-29T10:24:54.611Z,37.10
2023-01-29T10:26:57.496Z,41.70
2023-01-29T10:29:00.926Z,36.10
2023-01-29T10:31:08.140Z,38.23
2023-01-29T10:33:19.836Z,35.00
2023-01-29T10:35:24.804Z,33.30
2023-01-29T10:37:36.292Z,36.40
2023-01-29T10:39:39.269Z,39.00
2023-01-29T10:41:52.532Z,37.90
2023-01-29T10:44:04.252Z,43.30
2023-01-29T10:46:16.904Z,41.70
2023-01-29T10:48:39.889Z,35.30
2023-01-29T10:50:49.546Z,40.57
2023-01-29T10:53:04.793Z,37.90
2023-01-29T10:55:21.288Z,33.27
2023-01-29T10:57:38.413Z,37.77
2023-01-29T10:59:53.128Z,33.27
2023-01-29T11:01:59.162Z,38.13
2023-01-29T11:04:04.124Z,35.13
2023-01-29T11:06:12.964Z,35.80
2023-01-29T11:08:19.607Z,40.70
2023-01-29T11:10:23.707Z,36.00
2023-01-29T11:12:30.608Z,40.13
2023-01-29T11:14:39.215Z,39.93
2023-01-29T11:16:43.047Z,31.50
2023-01-29T11:18:54.739Z,37.20
2023-01-29T11:21:03.068Z,36.83
2023-01-29T11:23:07.575Z,32.93
2023-01-29T11:25:18.110Z,42.67
2023-01-29T11:27:26.422Z,35.13
2023-01-29T11:29:33.515Z,40.70
2023-01-29T11:31:38.220Z,34.73
2023-01-29T11:33:41.754Z,35.73
2023-01-29T11:35:44.687Z,37.83
2023-01-29T11:37:48.360Z,36.77
2023-01-29T11:43:35.874Z,38.97
2023-01-29T11:45:40.303Z,33.13
2023-01-29T11:47:43.230Z,33.50
2023-01-29T11:49:47.812Z,32.80
2023-01-29T11:51:53.791Z,35.83
2023-01-29T11:53:58.148Z,34.97
2023-01-29T11:56:01.040Z,33.47
2023-01-29T11:58:05.947Z,39.37
2023-01-29T12:00:20.776Z,34.07
2023-01-29T12:02:31.648Z,33.10
2023-01-29T12:04:34.573Z,38.57
2023-01-29T12:06:38.758Z,30.57
2023-01-29T12:08:42.011Z,30.23
2023-01-29T12:10:45.017Z,35.97
2023-01-29T12:12:47.925Z,34.13
2023-01-29T12:15:04.120Z,29.60
2023-01-29T12:17:13.830Z,29.27
2023-01-29T12:19:26.061Z,29.93
2023-01-29T12:21:34.852Z,32.30
2023-01-29T12:23:43.116Z,35.07
2023-01-29T12:25:51.819Z,33.43
2023-01-29T12:28:00.234Z,36.40
2023-01-29T12:30:09.511Z,29.57
2023-01-29T12:32:25.697Z,28.40
2023-01-29T12:34:38.253Z,27.63
2023-01-29T12:36:44.080Z,27.30
2023-01-29T12:38:47.205Z,29.80
2023-01-29T12:40:53.243Z,30.00
2023-01-29T12:43:00.221Z,40.80
2023-01-29T12:45:05.235Z,33.47
2023-01-29T12:47:11.591Z,28.10
2023-01-29T12:49:18.765Z,33.33
2023-01-29T12:51:24.533Z,33.00
2023-01-29T12:53:30.249Z,32.50
2023-01-29T12:55:38.571Z,28.50
2023-01-29T12:57:45.117Z,30.30
2023-01-29T12:59:53.029Z,30.57
2023-01-29T13:01:57.556Z,32.83
2023-01-29T13:04:04.215Z,34.23
2023-01-29T13:06:11.209Z,34.63
2023-01-29T13:08:18.788Z,35.27
2023-01-29T13:10:25.790Z,26.83
2023-01-29T13:12:28.928Z,30.10
2023-01-29T13:14:37.247Z,30.10
2023-01-29T13:16:43.358Z,28.97
2023-01-29T13:18:48.605Z,31.27
2023-01-29T13:20:51.664Z,28.03
2023-01-29T13:22:58.167Z,32.43
2023-01-29T13:25:05.794Z,28.83
2023-01-29T13:27:17.875Z,27.10
2023-01-29T13:29:25.202Z,23.90
2023-01-29T13:31:32.766Z,28.40
2023-01-29T13:33:35.732Z,29.93
2023-01-29T13:35:40.800Z,24.83
2023-01-29T13:37:48.889Z,26.50
2023-01-29T13:39:54.405Z,25.90
2023-01-29T13:41:58.321Z,23.93
2023-01-29T13:44:01.244Z,27.33
2023-01-29T13:46:09.215Z,27.43
2023-01-29T13:48:19.264Z,24.00
2023-01-29T13:50:26.414Z,23.90
2023-01-29T13:52:35.842Z,29.33
2023-01-29T13:54:38.842Z,25.90
2023-01-29T13:56:51.604Z,31.73
2023-01-29T13:58:55.353Z,31.53
2023-01-29T14:01:02.214Z,32.33
2023-01-29T14:04:09.965Z,27.60
2023-01-29T14:06:13.236Z,28.37
2023-01-29T14:08:41.286Z,33.93
2023-01-29T14:10:44.849Z,26.77
2023-01-29T14:12:51.453Z,31.57
2023-01-29T14:15:05.297Z,32.40
2023-01-29T14:17:08.397Z,29.13
2023-01-29T14:19:19.078Z,32.03
2023-01-29T14:21:23.953Z,29.47
2023-01-29T14:23:35.854Z,36.53
2023-01-29T14:25:40.128Z,30.97
2023-01-29T14:27:49.757Z,29.80
2023-01-29T14:29:57.616Z,31.37
2023-01-29T14:32:01.783Z,30.33
2023-01-29T14:34:06.204Z,29.10
2023-01-29T14:36:12.533Z,34.50
2023-01-29T14:38:15.872Z,29.63
2023-01-29T14:40:22.739Z,31.53
2023-01-29T14:42:27.166Z,27.87
2023-01-29T14:44:58.547Z,31.30
2023-01-29T14:47:02.179Z,29.07
2023-01-29T14:49:05.060Z,27.77
2023-01-29T14:51:10.889Z,28.13
2023-01-29T14:53:18.199Z,27.77
2023-01-29T14:55:28.718Z,28.07
2023-01-29T14:57:32.135Z,27.73
2023-01-29T14:59:37.603Z,28.00
2023-01-29T15:01:47.755Z,28.27
2023-01-29T15:03:52.179Z,26.87
2023-01-29T15:05:55.762Z,26.23
2023-01-29T15:08:04.448Z,26.37
2023-01-29T15:10:22.529Z,26.63
2023-01-29T15:12:29.256Z,30.07
2023-01-29T15:14:34.205Z,30.00
2023-01-29T15:16:46.031Z,28.80
2023-01-29T15:18:50.288Z,28.00
2023-01-29T15:21:04.793Z,25.00
2023-01-29T15:23:26.773Z,28.30
2023-01-29T15:25:33.823Z,26.90
2023-01-29T15:27:36.983Z,24.03
2023-01-29T15:29:40.288Z,26.50
2023-01-29T15:31:47.077Z,27.77
2023-01-29T15:33:53.393Z,28.87
2023-01-29T15:36:06.739Z,26.33
2023-01-29T15:38:17.139Z,25.13
2023-01-29T15:40:20.727Z,25.33
2023-01-29T15:42:25.831Z,31.20
2023-01-29T15:44:28.667Z,24.60
2023-01-29T15:46:34.912Z,26.37
2023-01-29T15:48:40.518Z,26.03
2023-01-29T15:50:43.851Z,24.70
2023-01-29T15:52:50.059Z,23.83
2023-01-29T15:54:53.282Z,21.50
2023-01-29T15:56:57.161Z,22.00
2023-01-29T15:59:04.023Z,21.70
2023-01-29T16:01:08.424Z,19.20
2023-01-29T16:03:15.677Z,19.33
2023-01-29T16:05:23.053Z,20.00
2023-01-29T16:07:26.141Z,18.10
2023-01-29T16:09:30.096Z,19.53
2023-01-29T16:11:33.888Z,22.43
2023-01-29T16:13:37.981Z,24.23
2023-01-29T16:15:55.759Z,19.23
2023-01-29T16:17:59.930Z,22.23
2023-01-29T16:20:05.221Z,23.37
2023-01-29T16:22:09.797Z,16.50
2023-01-29T16:24:15.881Z,17.37
2023-01-29T16:26:20.986Z,21.27
2023-01-29T16:28:23.814Z,17.53
2023-01-29T16:30:27.818Z,30.00
2023-01-29T16:32:31.177Z,24.83
2023-01-29T16:34:36.479Z,24.43
2023-01-29T16:36:45.763Z,18.17
2023-01-29T16:38:52.063Z,29.40
2023-01-29T16:41:07.747Z,22.10
2023-01-29T16:43:47.725Z,23.97
2023-01-29T16:46:03.207Z,21.57
2023-01-29T16:48:27.308Z,23.63
2023-01-29T16:50:40.490Z,20.57
2023-01-29T16:52:57.753Z,21.40
2023-01-29T16:55:16.212Z,23.20
2023-01-29T16:57:21.273Z,26.60
2023-01-29T16:59:32.193Z,21.10
2023-01-29T17:01:36.386Z,20.30
2023-01-29T17:03:40.186Z,23.13
2023-01-29T17:05:43.169Z,20.60
2023-01-29T17:07:46.633Z,20.20
2023-01-29T17:09:51.763Z,21.60
2023-01-29T17:11:58.003Z,21.40
2023-01-29T17:14:01.005Z,19.90
2023-01-29T17:16:15.024Z,20.20
2023-01-29T17:18:20.297Z,24.13
2023-01-29T17:20:24.235Z,27.43
2023-01-29T17:22:27.090Z,22.43
2023-01-29T17:24:30.024Z,23.20
2023-01-29T17:26:33.020Z,25.63
2023-01-29T17:28:37.368Z,22.20
2023-01-29T17:30:40.512Z,26.00
2023-01-29T17:32:44.928Z,22.20
2023-01-29T17:34:50.095Z,24.13
2023-01-29T17:36:53.255Z,25.93
2023-01-29T17:38:56.150Z,22.00
2023-01-29T17:41:01.429Z,24.77
2023-01-29T17:43:04.336Z,24.03
2023-01-29T17:45:10.762Z,24.87
2023-01-29T17:47:16.184Z,27.57
2023-01-29T17:49:23.535Z,26.90
2023-01-29T17:51:26.848Z,24.33
2023-01-29T17:53:44.336Z,25.10
2023-01-29T17:55:48.392Z,24.23
2023-01-29T17:57:51.437Z,24.93
2023-01-29T17:59:55.759Z,22.23
2023-01-29T18:02:00.702Z,22.27
2023-01-29T18:04:03.623Z,27.80
2023-01-29T18:06:08.620Z,22.03
2023-01-29T18:08:16.929Z,25.23
2023-01-29T18:10:21.934Z,23.57
2023-01-29T18:12:25.023Z,23.40
2023-01-29T18:14:28.280Z,26.13
2023-01-29T18:16:37.082Z,24.70
2023-01-29T18:18:41.488Z,24.83
2023-01-29T18:20:45.157Z,23.70
2023-01-29T18:22:48.677Z,26.90
2023-01-29T18:24:51.587Z,26.50
2023-01-29T18:26:55.090Z,23.23
2023-01-29T18:28:57.998Z,25.50
2023-01-29T18:31:02.344Z,32.73
2023-01-29T18:33:05.739Z,26.60
2023-01-29T18:35:10.964Z,22.37
2023-01-29T18:37:13.857Z,25.03
2023-01-29T18:39:16.939Z,27.17
2023-01-29T18:41:20.374Z,32.43
2023-01-29T18:43:26.198Z,21.53
2023-01-29T18:45:29.594Z,22.97
2023-01-29T18:47:32.449Z,22.80
2023-01-29T18:49:41.081Z,23.30
2023-01-29T18:51:46.500Z,30.83
2023-01-29T18:53:52.027Z,26.43
2023-01-29T18:55:56.427Z,25.90
2023-01-29T18:58:32.716Z,23.53
2023-01-29T19:00:22.858Z,22.30
2023-01-29T19:02:25.808Z,23.07
2023-01-29T19:04:28.695Z,20.37
2023-01-29T19:06:34.950Z,20.80
2023-01-29T19:08:40.665Z,18.33
2023-01-29T19:10:43.614Z,20.07
2023-01-29T19:12:46.481Z,20.97
2023-01-29T19:14:49.459Z,22.90
2023-01-29T19:16:52.608Z,20.50
2023-01-29T19:18:55.970Z,23.43
2023-01-29T19:20:58.874Z,21.03
2023-01-29T19:23:01.801Z,21.20
2023-01-29T19:25:09.327Z,18.80
2023-01-29T19:27:12.668Z,19.37
2023-01-29T19:29:16.257Z,19.00
2023-01-29T19:31:19.247Z,21.10
2023-01-29T19:33:22.739Z,19.70
2023-01-29T19:35:25.944Z,20.63
2023-01-29T19:37:30.477Z,20.13
2023-01-29T19:39:34.003Z,19.93
2023-01-29T19:41:38.219Z,20.83
2023-01-29T19:43:42.230Z,19.10
2023-01-29T19:45:49.485Z,20.67
2023-01-29T19:47:54.856Z,22.40
2023-01-29T19:49:57.803Z,23.30
2023-01-29T19:52:01.102Z,23.60
2023-01-29T19:54:04.082Z,20.90
2023-01-29T19:56:09.390Z,21.10
2023-01-29T19:58:13.992Z,24.00
2023-01-29T20:00:20.039Z,20.20
2023-01-29T20:02:24.851Z,19.83
2023-01-29T20:04:30.480Z,19.70
2023-01-29T20:06:33.415Z,23.33
2023-01-29T20:08:36.810Z,18.03
2023-01-29T20:10:46.205Z,23.17
2023-01-29T20:12:49.393Z,22.13
2023-01-29T20:14:53.613Z,18.60
2023-01-29T20:16:56.531Z,24.03
2023-01-29T20:19:14.029Z,17.77
2023-01-29T20:21:20.507Z,21.53
2023-01-29T20:23:36.645Z,17.40
2023-01-29T20:25:40.830Z,22.33
2023-01-29T20:27:43.811Z,17.97
2023-01-29T20:29:46.709Z,18.87
2023-01-29T20:31:51.324Z,22.30
2023-01-29T20:33:54.222Z,22.33
2023-01-29T20:35:57.575Z,21.30
2023-01-29T20:38:01.075Z,22.63
2023-01-29T20:40:04.065Z,23.27
2023-01-29T20:42:07.068Z,18.70
2023-01-29T20:44:10.128Z,19.13
2023-01-29T20:46:15.139Z,21.60
2023-01-29T20:48:19.567Z,20.83
2023-01-29T20:50:22.367Z,21.13
2023-01-29T20:52:26.318Z,20.77
2023-01-29T20:54:29.967Z,20.07
2023-01-29T20:56:39.306Z,21.00
2023-01-29T20:58:46.956Z,17.63
2023-01-29T21:00:49.911Z,20.50
2023-01-29T21:02:52.956Z,18.40
2023-01-29T21:04:57.282Z,21.73
2023-01-29T21:07:00.506Z,20.47
2023-01-29T21:09:03.423Z,18.40
2023-01-29T21:11:08.016Z,18.00
2023-01-29T21:13:10.894Z,18.33
2023-01-29T21:15:13.819Z,17.07
2023-01-29T21:17:16.964Z,20.00
2023-01-29T21:19:19.853Z,24.37
2023-01-29T21:21:24.309Z,23.50
2023-01-29T21:23:27.338Z,20.00
2023-01-29T21:25:31.462Z,19.37
2023-01-29T21:27:34.399Z,19.27
2023-01-29T21:29:37.868Z,23.50
2023-01-29T21:31:41.120Z,20.73
2023-01-29T21:33:44.569Z,17.57
2023-01-29T21:35:47.453Z,23.43
2023-01-29T21:37:51.841Z,23.53
2023-01-29T21:39:54.675Z,25.67
2023-01-29T21:42:15.143Z,21.93
2023-01-29T21:44:17.994Z,26.70
2023-01-29T21:46:20.889Z,21.30
2023-01-29T21:48:24.218Z,20.80
2023-01-29T21:50:27.084Z,24.00
2023-01-29T21:52:29.903Z,25.23
2023-01-29T21:54:35.629Z,25.03
2023-01-29T21:56:38.518Z,24.23
2023-01-29T21:58:41.368Z,20.70
2023-01-29T22:00:48.782Z,23.17
2023-01-29T22:02:53.022Z,22.53
2023-01-29T22:05:08.711Z,28.90
2023-01-29T22:07:20.242Z,23.93
2023-01-29T22:09:23.735Z,23.63
2023-01-29T22:11:28.057Z,26.03
2023-01-29T22:13:30.939Z,29.67
2023-01-29T22:15:33.908Z,24.37
2023-01-29T22:17:38.561Z,23.27
2023-01-29T22:19:41.428Z,25.43
2023-01-29T22:21:44.869Z,27.30
2023-01-29T22:23:49.324Z,25.60
2023-01-29T22:25:52.201Z,26.93
2023-01-29T22:27:56.484Z,28.40
2023-01-29T22:29:59.672Z,26.03
2023-01-29T22:32:02.622Z,24.27
2023-01-29T22:34:05.553Z,26.17
2023-01-29T22:36:09.313Z,27.70
2023-01-29T22:38:12.195Z,24.63
2023-01-29T22:40:15.607Z,27.23
2023-01-29T22:42:19.813Z,26.00
2023-01-29T22:44:24.154Z,25.43
2023-01-29T22:46:27.498Z,25.20
2023-01-29T22:48:30.612Z,28.00
2023-01-29T22:50:33.649Z,33.37
2023-01-29T22:52:39.400Z,31.10
2023-01-29T22:54:43.264Z,28.60
2023-01-29T22:56:46.383Z,29.50
2023-01-29T22:58:51.708Z,29.47
2023-01-29T23:00:55.906Z,27.13
2023-01-29T23:02:59.195Z,36.40
2023-01-29T23:05:02.335Z,31.93
2023-01-29T23:07:05.551Z,29.87
2023-01-29T23:09:08.640Z,32.20
2023-01-29T23:11:15.889Z,30.13
2023-01-29T23:13:18.861Z,28.30
2023-01-29T23:15:21.849Z,31.37
2023-01-29T23:17:26.184Z,28.83
2023-01-29T23:19:30.068Z,26.33
2023-01-29T23:21:32.923Z,29.87
2023-01-29T23:23:36.951Z,32.83
2023-01-29T23:25:57.306Z,31.70
2023-01-29T23:28:00.312Z,28.40
2023-01-29T23:30:03.151Z,35.17
2023-01-29T23:32:07.120Z,30.70
2023-01-29T23:34:11.505Z,32.63
2023-01-29T23:36:14.343Z,28.30
2023-01-29T23:38:17.168Z,29.87
2023-01-29T23:40:20.136Z,33.77
2023-01-29T23:42:23.945Z,34.17
2023-01-29T23:44:27.105Z,30.83
2023-01-29T23:46:30.090Z,32.63
2023-01-29T23:48:32.959Z,45.03
2023-01-29T23:50:37.309Z,29.00
2023-01-29T23:52:40.187Z,31.23
2023-01-29T23:54:43.038Z,31.53
2023-01-29T23:56:46.258Z,28.30
2023-01-29T23:58:49.251Z,34.90
